sensor_id;sensor_type;location;lat;lon;timestamp;pressure;altitude;pressure_sealevel;temperature;humidity
71948;BME280;63257;55.082;38.772;2023-05-10T00:01:26;100948.72;;;5.08;51.97
71948;BME280;63257;55.082;38.772;2023-05-10T00:03:51;100948.41;;;5.29;49.93
71948;BME280;63257;55.082;38.772;2023-05-10T00:06:17;100942.22;;;5.36;48.72
71948;BME280;63257;55.082;38.772;2023-05-10T00:08:44;100941.16;;;5.46;48.75
71948;BME280;63257;55.082;38.772;2023-05-10T00:11:09;100970.25;;;5.26;56.40
71948;BME280;63257;55.082;38.772;2023-05-10T00:13:35;100975.84;;;5.01;57.87
71948;BME280;63257;55.082;38.772;2023-05-10T00:16:01;100968.31;;;4.80;58.54
71948;BME280;63257;55.082;38.772;2023-05-10T00:18:27;100964.91;;;4.73;58.92
71948;BME280;63257;55.082;38.772;2023-05-10T00:20:53;100973.75;;;4.61;59.93
71948;BME280;63257;55.082;38.772;2023-05-10T00:23:18;100976.44;;;4.56;59.67
71948;BME280;63257;55.082;38.772;2023-05-10T00:25:44;100963.41;;;4.53;59.74
71948;BME280;63257;55.082;38.772;2023-05-10T00:28:10;100971.25;;;4.53;58.38
71948;BME280;63257;55.082;38.772;2023-05-10T00:30:37;100968.56;;;4.58;58.40
71948;BME280;63257;55.082;38.772;2023-05-10T00:33:02;100967.59;;;4.65;57.09
71948;BME280;63257;55.082;38.772;2023-05-10T00:35:28;100974.50;;;4.72;58.47
71948;BME280;63257;55.082;38.772;2023-05-10T00:37:54;100973.69;;;4.69;60.25
71948;BME280;63257;55.082;38.772;2023-05-10T00:40:20;100965.00;;;4.65;61.27
71948;BME280;63257;55.082;38.772;2023-05-10T00:42:51;100947.78;;;4.47;62.32
71948;BME280;63257;55.082;38.772;2023-05-10T00:45:18;100973.78;;;4.59;62.89
71948;BME280;63257;55.082;38.772;2023-05-10T00:47:47;100973.78;;;4.59;63.13
71948;BME280;63257;55.082;38.772;2023-05-10T00:50:14;100975.72;;;4.45;63.99
71948;BME280;63257;55.082;38.772;2023-05-10T00:52:41;100981.97;;;4.30;65.67
71948;BME280;63257;55.082;38.772;2023-05-10T00:55:09;100966.31;;;4.27;66.59
71948;BME280;63257;55.082;38.772;2023-05-10T00:57:36;100968.91;;;4.27;66.02
71948;BME280;63257;55.082;38.772;2023-05-10T01:00:03;100957.66;;;4.23;66.11
71948;BME280;63257;55.082;38.772;2023-05-10T01:02:31;100968.03;;;4.30;65.76
71948;BME280;63257;55.082;38.772;2023-05-10T01:04:59;100976.63;;;4.38;66.08
71948;BME280;63257;55.082;38.772;2023-05-10T01:07:25;100968.84;;;4.35;66.41
71948;BME280;63257;55.082;38.772;2023-05-10T01:09:51;100968.88;;;4.32;67.15
71948;BME280;63257;55.082;38.772;2023-05-10T01:12:17;100967.09;;;4.37;66.68
71948;BME280;63257;55.082;38.772;2023-05-10T01:14:43;100967.09;;;4.37;66.56
71948;BME280;63257;55.082;38.772;2023-05-10T01:17:10;100967.03;;;4.41;66.57
71948;BME280;63257;55.082;38.772;2023-05-10T01:19:37;100968.66;;;4.53;65.99
71948;BME280;63257;55.082;38.772;2023-05-10T01:25:20;100973.88;;;4.53;65.36
71948;BME280;63257;55.082;38.772;2023-05-10T01:36:06;100952.34;;;4.30;68.18
71948;BME280;63257;55.082;38.772;2023-05-10T01:41:19;100976.47;;;4.55;59.68
71948;BME280;63257;55.082;38.772;2023-05-10T01:46:40;100969.97;;;4.85;59.87
71948;BME280;63257;55.082;38.772;2023-05-10T01:49:09;100964.69;;;4.90;63.69
71948;BME280;63257;55.082;38.772;2023-05-10T01:52:00;100962.91;;;4.92;65.25
71948;BME280;63257;55.082;38.772;2023-05-10T01:54:30;100952.47;;;4.89;64.17
71948;BME280;63257;55.082;38.772;2023-05-10T01:57:00;100968.00;;;5.01;63.27
71948;BME280;63257;55.082;38.772;2023-05-10T01:59:31;100966.16;;;5.11;62.52
71948;BME280;63257;55.082;38.772;2023-05-10T02:02:02;100973.00;;;5.18;59.59
71948;BME280;63257;55.082;38.772;2023-05-10T02:04:30;100965.06;;;5.24;59.72
71948;BME280;63257;55.082;38.772;2023-05-10T02:06:57;100965.78;;;5.36;61.81
71948;BME280;63257;55.082;38.772;2023-05-10T02:09:25;100951.75;;;5.40;58.70
71948;BME280;63257;55.082;38.772;2023-05-10T02:11:53;100964.69;;;5.49;59.82
71948;BME280;63257;55.082;38.772;2023-05-10T02:14:20;100960.25;;;5.54;51.39
71948;BME280;63257;55.082;38.772;2023-05-10T02:16:47;100963.44;;;5.72;50.37
71948;BME280;63257;55.082;38.772;2023-05-10T02:19:21;100963.19;;;5.87;49.71
71948;BME280;63257;55.082;38.772;2023-05-10T02:22:09;100955.16;;;5.97;50.01
71948;BME280;63257;55.082;38.772;2023-05-10T02:24:36;100969.94;;;6.02;50.37
71948;BME280;63257;55.082;38.772;2023-05-10T02:27:03;100961.09;;;6.08;51.37
71948;BME280;63257;55.082;38.772;2023-05-10T02:29:31;100969.75;;;6.13;51.26
71948;BME280;63257;55.082;38.772;2023-05-10T02:31:58;100969.75;;;6.13;51.52
71948;BME280;63257;55.082;38.772;2023-05-10T02:34:26;100958.38;;;6.14;52.09
71948;BME280;63257;55.082;38.772;2023-05-10T02:36:53;100955.63;;;6.20;53.49
71948;BME280;63257;55.082;38.772;2023-05-10T02:39:20;100968.50;;;6.33;51.83
71948;BME280;63257;55.082;38.772;2023-05-10T02:41:48;100963.16;;;6.37;49.94
71948;BME280;63257;55.082;38.772;2023-05-10T02:44:15;100949.78;;;6.50;48.30
71948;BME280;63257;55.082;38.772;2023-05-10T02:46:43;100956.59;;;6.60;49.63
71948;BME280;63257;55.082;38.772;2023-05-10T02:49:09;100945.97;;;6.66;50.33
71948;BME280;63257;55.082;38.772;2023-05-10T02:51:37;100943.28;;;6.69;50.63
71948;BME280;63257;55.082;38.772;2023-05-10T02:54:15;100934.47;;;6.73;50.27
71948;BME280;63257;55.082;38.772;2023-05-10T02:56:50;100943.69;;;6.91;51.64
71948;BME280;63257;55.082;38.772;2023-05-10T02:59:16;100928.63;;;7.00;45.86
71948;BME280;63257;55.082;38.772;2023-05-10T03:01:42;100947.41;;;7.20;46.41
71948;BME280;63257;55.082;38.772;2023-05-10T03:04:08;100921.94;;;7.24;46.28
71948;BME280;63257;55.082;38.772;2023-05-10T03:06:34;100922.56;;;7.35;47.11
71948;BME280;63257;55.082;38.772;2023-05-10T03:09:02;100938.72;;;7.54;48.29
71948;BME280;63257;55.082;38.772;2023-05-10T03:14:37;100938.22;;;7.74;51.07
71948;BME280;63257;55.082;38.772;2023-05-10T03:20:03;100930.44;;;7.70;51.27
71948;BME280;63257;55.082;38.772;2023-05-10T03:22:34;100919.09;;;7.68;53.15
71948;BME280;63257;55.082;38.772;2023-05-10T03:25:05;100936.25;;;7.82;54.63
71948;BME280;63257;55.082;38.772;2023-05-10T03:27:39;100939.56;;;7.89;52.12
71948;BME280;63257;55.082;38.772;2023-05-10T03:30:08;100934.09;;;7.98;47.11
71948;BME280;63257;55.082;38.772;2023-05-10T03:32:36;100925.13;;;8.06;40.68
71948;BME280;63257;55.082;38.772;2023-05-10T03:35:09;100932.72;;;8.17;41.09
71948;BME280;63257;55.082;38.772;2023-05-10T03:37:36;100927.91;;;8.32;41.55
71948;BME280;63257;55.082;38.772;2023-05-10T03:40:02;100938.13;;;8.42;45.14
71948;BME280;63257;55.082;38.772;2023-05-10T03:42:31;100915.66;;;8.31;47.26
71948;BME280;63257;55.082;38.772;2023-05-10T03:44:57;100929.44;;;8.40;48.08
71948;BME280;63257;55.082;38.772;2023-05-10T03:47:23;100928.22;;;8.53;45.71
71948;BME280;63257;55.082;38.772;2023-05-10T03:49:49;100936.56;;;8.68;44.75
71948;BME280;63257;55.082;38.772;2023-05-10T03:52:15;100935.31;;;8.81;47.92
71948;BME280;63257;55.082;38.772;2023-05-10T03:54:41;100927.41;;;8.81;48.29
71948;BME280;63257;55.082;38.772;2023-05-10T03:57:07;100933.28;;;8.89;50.40
71948;BME280;63257;55.082;38.772;2023-05-10T03:59:33;100928.56;;;8.71;48.70
71948;BME280;63257;55.082;38.772;2023-05-10T04:01:59;100926.50;;;8.82;49.47
71948;BME280;63257;55.082;38.772;2023-05-10T04:04:25;100926.06;;;8.96;50.53
71948;BME280;63257;55.082;38.772;2023-05-10T04:06:51;100923.13;;;9.05;49.30
71948;BME280;63257;55.082;38.772;2023-05-10T04:09:17;100931.91;;;9.06;48.14
71948;BME280;63257;55.082;38.772;2023-05-10T04:11:43;100936.31;;;8.77;51.45
71948;BME280;63257;55.082;38.772;2023-05-10T04:14:09;100914.97;;;8.86;52.09
71948;BME280;63257;55.082;38.772;2023-05-10T04:16:35;100923.97;;;9.07;52.08
71948;BME280;63257;55.082;38.772;2023-05-10T04:19:09;100922.66;;;9.21;53.48
71948;BME280;63257;55.082;38.772;2023-05-10T04:21:36;100929.41;;;9.29;52.00
71948;BME280;63257;55.082;38.772;2023-05-10T04:24:05;100884.91;;;9.20;49.98
71948;BME280;63257;55.082;38.772;2023-05-10T04:26:31;100861.13;;;9.23;46.40
71948;BME280;63257;55.082;38.772;2023-05-10T04:33:09;100909.28;;;10.06;46.03
71948;BME280;63257;55.082;38.772;2023-05-10T04:35:35;100906.34;;;10.13;45.34
71948;BME280;63257;55.082;38.772;2023-05-10T04:38:01;100901.66;;;10.22;44.99
71948;BME280;63257;55.082;38.772;2023-05-10T04:40:27;100912.41;;;10.41;44.11
71948;BME280;63257;55.082;38.772;2023-05-10T04:42:53;100905.66;;;10.57;43.53
71948;BME280;63257;55.082;38.772;2023-05-10T04:45:18;100912.19;;;10.71;44.52
71948;BME280;63257;55.082;38.772;2023-05-10T04:47:44;100903.84;;;10.81;43.09
71948;BME280;63257;55.082;38.772;2023-05-10T04:50:10;100912.00;;;10.97;42.45
71948;BME280;63257;55.082;38.772;2023-05-10T04:52:36;100907.34;;;11.04;39.38
71948;BME280;63257;55.082;38.772;2023-05-10T04:59:14;100922.78;;;11.15;41.65
71948;BME280;63257;55.082;38.772;2023-05-10T05:01:40;100921.50;;;11.25;41.74
71948;BME280;63257;55.082;38.772;2023-05-10T05:04:06;100899.06;;;11.13;42.78
71948;BME280;63257;55.082;38.772;2023-05-10T05:06:32;100912.53;;;11.29;40.78
71948;BME280;63257;55.082;38.772;2023-05-10T05:08:58;100916.13;;;11.49;40.90
71948;BME280;63257;55.082;38.772;2023-05-10T05:11:24;100898.31;;;11.52;40.82
71948;BME280;63257;55.082;38.772;2023-05-10T05:13:51;100901.72;;;11.77;38.45
71948;BME280;63257;55.082;38.772;2023-05-10T05:16:17;100909.13;;;11.89;38.04
71948;BME280;63257;55.082;38.772;2023-05-10T05:18:43;100908.38;;;12.08;38.25
71948;BME280;63257;55.082;38.772;2023-05-10T05:21:16;100901.47;;;12.24;37.19
71948;BME280;63257;55.082;38.772;2023-05-10T05:23:43;100898.09;;;12.20;34.41
71948;BME280;63257;55.082;38.772;2023-05-10T05:26:09;100896.63;;;12.34;35.26
71948;BME280;63257;55.082;38.772;2023-05-10T05:28:35;100876.00;;;12.41;34.08
71948;BME280;63257;55.082;38.772;2023-05-10T05:31:04;100893.97;;;12.53;34.20
71948;BME280;63257;55.082;38.772;2023-05-10T05:33:30;100875.72;;;12.47;33.36
71948;BME280;63257;55.082;38.772;2023-05-10T05:35:56;100898.25;;;12.75;33.50
71948;BME280;63257;55.082;38.772;2023-05-10T05:38:22;100893.25;;;12.87;34.18
71948;BME280;63257;55.082;38.772;2023-05-10T05:40:48;100886.38;;;12.83;33.73
71948;BME280;63257;55.082;38.772;2023-05-10T05:43:13;100883.38;;;13.09;32.71
71948;BME280;63257;55.082;38.772;2023-05-10T05:45:39;100874.19;;;13.16;32.55
71948;BME280;63257;55.082;38.772;2023-05-10T05:48:05;100889.91;;;13.20;33.15
71948;BME280;63257;55.082;38.772;2023-05-10T05:50:31;100873.59;;;13.11;33.58
71948;BME280;63257;55.082;38.772;2023-05-10T05:52:57;100885.91;;;13.29;33.92
71948;BME280;63257;55.082;38.772;2023-05-10T05:55:23;100879.88;;;13.45;33.18
71948;BME280;63257;55.082;38.772;2023-05-10T05:57:49;100872.38;;;13.53;33.78
71948;BME280;63257;55.082;38.772;2023-05-10T06:00:15;100881.91;;;13.57;31.61
71948;BME280;63257;55.082;38.772;2023-05-10T06:06:54;100849.78;;;13.46;30.69
71948;BME280;63257;55.082;38.772;2023-05-10T06:09:19;100840.84;;;13.29;31.21
71948;BME280;63257;55.082;38.772;2023-05-10T06:11:46;100867.25;;;13.50;30.17
71948;BME280;63257;55.082;38.772;2023-05-10T06:14:12;100878.50;;;13.55;31.19
71948;BME280;63257;55.082;38.772;2023-05-10T06:16:37;100871.66;;;13.84;30.26
71948;BME280;63257;55.082;38.772;2023-05-10T06:23:23;100862.56;;;14.06;31.08
71948;BME280;63257;55.082;38.772;2023-05-10T06:25:48;100867.06;;;14.21;30.21
71948;BME280;63257;55.082;38.772;2023-05-10T06:28:14;100866.38;;;14.18;30.44
71948;BME280;63257;55.082;38.772;2023-05-10T06:30:40;100874.50;;;14.15;29.00
71948;BME280;63257;55.082;38.772;2023-05-10T06:33:06;100872.28;;;14.23;31.15
71948;BME280;63257;55.082;38.772;2023-05-10T06:39:55;100842.63;;;14.15;29.79
71948;BME280;63257;55.082;38.772;2023-05-10T06:42:21;100858.47;;;14.16;29.02
71948;BME280;63257;55.082;38.772;2023-05-10T06:49:07;100849.38;;;14.54;26.52
71948;BME280;63257;55.082;38.772;2023-05-10T06:51:47;100854.38;;;14.76;26.59
71948;BME280;63257;55.082;38.772;2023-05-10T06:54:13;100847.38;;;14.57;26.14
71948;BME280;63257;55.082;38.772;2023-05-10T06:56:39;100835.16;;;14.55;25.77
71948;BME280;63257;55.082;38.772;2023-05-10T06:59:08;100838.66;;;14.55;25.93
71948;BME280;63257;55.082;38.772;2023-05-10T07:05:39;100838.91;;;14.35;22.25
71948;BME280;63257;55.082;38.772;2023-05-10T07:08:05;100847.13;;;14.46;22.82
71948;BME280;63257;55.082;38.772;2023-05-10T07:10:31;100848.34;;;14.40;22.90
71948;BME280;63257;55.082;38.772;2023-05-10T07:12:57;100843.19;;;14.37;22.89
71948;BME280;63257;55.082;38.772;2023-05-10T07:15:23;100841.97;;;14.27;21.05
71948;BME280;63257;55.082;38.772;2023-05-10T07:30:13;100827.88;;;14.42;21.29
71948;BME280;63257;55.082;38.772;2023-05-10T07:32:39;100832.91;;;14.47;21.17
71948;BME280;63257;55.082;38.772;2023-05-10T07:35:07;100819.28;;;14.37;20.49
71948;BME280;63257;55.082;38.772;2023-05-10T07:37:37;100827.69;;;14.46;20.69
71948;BME280;63257;55.082;38.772;2023-05-10T07:40:03;100823.31;;;14.45;21.56
71948;BME280;63257;55.082;38.772;2023-05-10T07:42:30;100822.56;;;14.42;21.11
71948;BME280;63257;55.082;38.772;2023-05-10T07:44:55;100812.78;;;14.43;21.10
71948;BME280;63257;55.082;38.772;2023-05-10T07:51:40;100816.56;;;14.71;21.27
71948;BME280;63257;55.082;38.772;2023-05-10T07:54:06;100793.16;;;14.78;20.79
71948;BME280;63257;55.082;38.772;2023-05-10T07:56:32;100811.75;;;14.93;20.89
71948;BME280;63257;55.082;38.772;2023-05-10T08:03:10;100820.03;;;15.03;21.30
71948;BME280;63257;55.082;38.772;2023-05-10T08:05:36;100812.31;;;14.99;21.22
71948;BME280;63257;55.082;38.772;2023-05-10T08:12:51;100804.03;;;15.64;20.43
71948;BME280;63257;55.082;38.772;2023-05-10T08:15:17;100800.09;;;15.86;20.75
71948;BME280;63257;55.082;38.772;2023-05-10T08:17:43;100795.59;;;15.72;20.69
71948;BME280;63257;55.082;38.772;2023-05-10T08:20:09;100784.66;;;15.62;20.60
71948;BME280;63257;55.082;38.772;2023-05-10T08:22:35;100786.94;;;15.68;19.84
71948;BME280;63257;55.082;38.772;2023-05-10T08:25:01;100793.47;;;15.77;20.17
71948;BME280;63257;55.082;38.772;2023-05-10T08:27:27;100787.78;;;15.69;20.59
71948;BME280;63257;55.082;38.772;2023-05-10T08:30:18;100792.09;;;15.86;20.85
71948;BME280;63257;55.082;38.772;2023-05-10T08:32:44;100779.44;;;15.89;20.77
71948;BME280;63257;55.082;38.772;2023-05-10T08:39:28;100782.91;;;15.47;21.57
71948;BME280;63257;55.082;38.772;2023-05-10T08:49:13;100756.25;;;15.18;22.66
71948;BME280;63257;55.082;38.772;2023-05-10T08:51:45;100727.13;;;14.86;22.18
71948;BME280;63257;55.082;38.772;2023-05-10T08:54:17;100772.31;;;15.16;22.32
71948;BME280;63257;55.082;38.772;2023-05-10T08:56:43;100762.38;;;15.34;20.86
71948;BME280;63257;55.082;38.772;2023-05-10T08:59:09;100767.56;;;15.81;20.70
71948;BME280;63257;55.082;38.772;2023-05-10T09:01:36;100752.94;;;16.02;21.25
71948;BME280;63257;55.082;38.772;2023-05-10T09:04:02;100757.72;;;16.24;21.10
71948;BME280;63257;55.082;38.772;2023-05-10T09:23:14;100719.59;;;16.24;20.06
71948;BME280;63257;55.082;38.772;2023-05-10T09:29:45;100692.22;;;16.89;20.84
71948;BME280;63257;55.082;38.772;2023-05-10T09:32:11;100705.56;;;17.28;22.03
71948;BME280;63257;55.082;38.772;2023-05-10T09:34:37;100713.25;;;17.71;20.13
71948;BME280;63257;55.082;38.772;2023-05-10T09:45:05;100703.63;;;17.69;18.59
71948;BME280;63257;55.082;38.772;2023-05-10T09:47:33;100690.69;;;17.75;18.78
71948;BME280;63257;55.082;38.772;2023-05-10T09:50:00;100691.81;;;17.21;19.83
71948;BME280;63257;55.082;38.772;2023-05-10T09:52:49;100680.94;;;17.24;19.64
71948;BME280;63257;55.082;38.772;2023-05-10T09:55:17;100695.44;;;17.20;20.08
71948;BME280;63257;55.082;38.772;2023-05-10T09:57:46;100701.19;;;17.01;19.90
71948;BME280;63257;55.082;38.772;2023-05-10T10:04:39;100668.88;;;17.06;20.13
71948;BME280;63257;55.082;38.772;2023-05-10T10:07:05;100681.34;;;17.05;20.14
71948;BME280;63257;55.082;38.772;2023-05-10T10:09:35;100695.44;;;17.07;20.33
71948;BME280;63257;55.082;38.772;2023-05-10T10:12:05;100691.16;;;16.92;20.03
71948;BME280;63257;55.082;38.772;2023-05-10T10:14:31;100626.25;;;16.53;20.32
71948;BME280;63257;55.082;38.772;2023-05-10T10:17:00;100645.34;;;16.72;20.25
71948;BME280;63257;55.082;38.772;2023-05-10T10:23:45;100674.91;;;17.72;19.81
71948;BME280;63257;55.082;38.772;2023-05-10T10:30:40;100619.47;;;17.76;20.07
71948;BME280;63257;55.082;38.772;2023-05-10T10:36:05;100662.59;;;17.83;19.79
71948;BME280;63257;55.082;38.772;2023-05-10T10:38:54;100658.09;;;17.33;21.05
71948;BME280;63257;55.082;38.772;2023-05-10T10:41:33;100656.91;;;16.99;21.17
71948;BME280;63257;55.082;38.772;2023-05-10T10:44:22;100656.91;;;16.99;20.89
71948;BME280;63257;55.082;38.772;2023-05-10T10:47:03;100649.31;;;16.79;21.40
71948;BME280;63257;55.082;38.772;2023-05-10T10:49:42;100657.47;;;17.04;21.41
71948;BME280;63257;55.082;38.772;2023-05-10T10:52:45;100653.94;;;16.90;20.64
71948;BME280;63257;55.082;38.772;2023-05-10T10:55:17;100659.25;;;16.90;21.29
71948;BME280;63257;55.082;38.772;2023-05-10T11:03:06;100655.34;;;17.85;20.14
71948;BME280;63257;55.082;38.772;2023-05-10T11:12:33;100615.13;;;17.62;19.37
71948;BME280;63257;55.082;38.772;2023-05-10T11:18:30;100624.03;;;19.40;21.54
71948;BME280;63257;55.082;38.772;2023-05-10T11:24:58;100617.66;;;19.64;18.71
71948;BME280;63257;55.082;38.772;2023-05-10T11:27:24;100609.66;;;19.30;18.77
71948;BME280;63257;55.082;38.772;2023-05-10T11:29:53;100592.88;;;18.94;19.21
71948;BME280;63257;55.082;38.772;2023-05-10T11:32:19;100593.50;;;18.97;19.65
71948;BME280;63257;55.082;38.772;2023-05-10T11:35:10;100608.78;;;18.48;19.38
71948;BME280;63257;55.082;38.772;2023-05-10T11:37:37;100599.88;;;17.88;19.48
71948;BME280;63257;55.082;38.772;2023-05-10T11:40:10;100606.34;;;17.73;19.69
71948;BME280;63257;55.082;38.772;2023-05-10T11:46:49;100594.97;;;18.19;19.33
71948;BME280;63257;55.082;38.772;2023-05-10T11:49:15;100580.94;;;18.04;19.52
71948;BME280;63257;55.082;38.772;2023-05-10T11:51:41;100593.34;;;18.05;19.72
71948;BME280;63257;55.082;38.772;2023-05-10T11:54:10;100590.97;;;18.72;19.71
71948;BME280;63257;55.082;38.772;2023-05-10T12:00:58;100592.22;;;17.84;20.80
71948;BME280;63257;55.082;38.772;2023-05-10T12:03:25;100589.69;;;17.69;21.67
71948;BME280;63257;55.082;38.772;2023-05-10T12:05:50;100569.97;;;17.22;20.88
71948;BME280;63257;55.082;38.772;2023-05-10T12:12:39;100578.75;;;16.98;21.51
71948;BME280;63257;55.082;38.772;2023-05-10T12:15:18;100601.31;;;16.79;21.74
71948;BME280;63257;55.082;38.772;2023-05-10T12:17:45;100582.88;;;16.76;22.09
71948;BME280;63257;55.082;38.772;2023-05-10T12:20:17;100577.25;;;16.94;21.01
71948;BME280;63257;55.082;38.772;2023-05-10T12:22:45;100577.22;;;17.33;21.67
71948;BME280;63257;55.082;38.772;2023-05-10T12:29:30;100564.72;;;17.33;21.25
71948;BME280;63257;55.082;38.772;2023-05-10T12:31:58;100560.75;;;17.39;21.58
71948;BME280;63257;55.082;38.772;2023-05-10T12:34:34;100561.09;;;17.34;20.98
71948;BME280;63257;55.082;38.772;2023-05-10T12:37:02;100568.63;;;17.77;21.21
71948;BME280;63257;55.082;38.772;2023-05-10T12:43:47;100575.34;;;17.46;20.60
71948;BME280;63257;55.082;38.772;2023-05-10T12:46:15;100566.44;;;17.58;20.48
71948;BME280;63257;55.082;38.772;2023-05-10T12:48:43;100576.03;;;17.74;20.36
71948;BME280;63257;55.082;38.772;2023-05-10T12:51:09;100529.38;;;17.67;20.40
71948;BME280;63257;55.082;38.772;2023-05-10T12:53:37;100551.94;;;18.11;20.86
71948;BME280;63257;55.082;38.772;2023-05-10T12:56:04;100558.84;;;17.89;19.91
71948;BME280;63257;55.082;38.772;2023-05-10T12:58:30;100568.25;;;18.19;20.42
71948;BME280;63257;55.082;38.772;2023-05-10T13:00:58;100548.25;;;18.36;20.64
71948;BME280;63257;55.082;38.772;2023-05-10T13:03:24;100549.75;;;18.16;20.13
71948;BME280;63257;55.082;38.772;2023-05-10T13:05:50;100559.31;;;17.83;20.49
71948;BME280;63257;55.082;38.772;2023-05-10T13:11:50;100554.84;;;17.84;20.48
71948;BME280;63257;55.082;38.772;2023-05-10T13:14:16;100541.25;;;17.87;20.46
71948;BME280;63257;55.082;38.772;2023-05-10T13:16:42;100545.66;;;17.75;20.43
71948;BME280;63257;55.082;38.772;2023-05-10T13:23:26;100545.84;;;18.09;20.77
71948;BME280;63257;55.082;38.772;2023-05-10T13:25:52;100534.25;;;18.33;21.06
71948;BME280;63257;55.082;38.772;2023-05-10T13:28:18;100548.50;;;18.33;20.43
71948;BME280;63257;55.082;38.772;2023-05-10T13:30:44;100508.88;;;18.27;21.50
71948;BME280;63257;55.082;38.772;2023-05-10T13:33:10;100534.06;;;18.36;21.03
71948;BME280;63257;55.082;38.772;2023-05-10T13:35:54;100541.88;;;18.14;20.93
71948;BME280;63257;55.082;38.772;2023-05-10T13:38:20;100538.53;;;18.00;20.74
71948;BME280;63257;55.082;38.772;2023-05-10T13:40:45;100528.03;;;18.09;20.28
71948;BME280;63257;55.082;38.772;2023-05-10T13:43:11;100529.09;;;18.54;20.23
71948;BME280;63257;55.082;38.772;2023-05-10T13:45:37;100532.03;;;18.85;20.21
71948;BME280;63257;55.082;38.772;2023-05-10T13:48:04;100536.69;;;18.94;20.14
71948;BME280;63257;55.082;38.772;2023-05-10T13:50:30;100526.97;;;19.04;19.95
71948;BME280;63257;55.082;38.772;2023-05-10T13:52:56;100531.59;;;18.91;19.73
71948;BME280;63257;55.082;38.772;2023-05-10T13:55:22;100543.22;;;18.78;19.65
71948;BME280;63257;55.082;38.772;2023-05-10T13:57:48;100535.00;;;18.93;19.53
71948;BME280;63257;55.082;38.772;2023-05-10T14:00:14;100526.94;;;19.27;18.92
71948;BME280;63257;55.082;38.772;2023-05-10T14:02:40;100523.03;;;19.42;18.55
71948;BME280;63257;55.082;38.772;2023-05-10T14:05:07;100525.25;;;19.37;18.33
71948;BME280;63257;55.082;38.772;2023-05-10T14:07:32;100507.66;;;19.01;18.96
71948;BME280;63257;55.082;38.772;2023-05-10T14:09:58;100525.59;;;18.64;19.96
71948;BME280;63257;55.082;38.772;2023-05-10T14:12:24;100507.53;;;18.21;20.26
71948;BME280;63257;55.082;38.772;2023-05-10T14:14:50;100513.88;;;17.72;20.62
71948;BME280;63257;55.082;38.772;2023-05-10T14:17:16;100520.16;;;17.71;21.07
71948;BME280;63257;55.082;38.772;2023-05-10T14:19:42;100525.78;;;17.92;20.29
71948;BME280;63257;55.082;38.772;2023-05-10T14:22:13;100519.38;;;17.81;20.40
71948;BME280;63257;55.082;38.772;2023-05-10T14:24:43;100522.50;;;17.75;20.52
71948;BME280;63257;55.082;38.772;2023-05-10T14:27:12;100512.22;;;18.06;20.89
71948;BME280;63257;55.082;38.772;2023-05-10T14:29:38;100512.41;;;18.27;20.51
71948;BME280;63257;55.082;38.772;2023-05-10T14:32:04;100516.81;;;18.40;20.49
71948;BME280;63257;55.082;38.772;2023-05-10T14:34:30;100498.13;;;19.19;19.22
71948;BME280;63257;55.082;38.772;2023-05-10T14:40:38;100507.75;;;21.23;17.15
71948;BME280;63257;55.082;38.772;2023-05-10T14:46:59;100508.53;;;20.21;18.00
71948;BME280;63257;55.082;38.772;2023-05-10T14:49:25;100507.25;;;20.04;18.39
71948;BME280;63257;55.082;38.772;2023-05-10T14:51:52;100505.75;;;19.79;18.47
71948;BME280;63257;55.082;38.772;2023-05-10T14:54:18;100502.22;;;19.90;18.89
71948;BME280;63257;55.082;38.772;2023-05-10T14:56:44;100505.66;;;19.80;18.09
71948;BME280;63257;55.082;38.772;2023-05-10T14:59:10;100492.00;;;19.51;19.04
71948;BME280;63257;55.082;38.772;2023-05-10T15:01:36;100498.59;;;19.24;19.42
71948;BME280;63257;55.082;38.772;2023-05-10T15:04:04;100478.13;;;19.46;19.33
71948;BME280;63257;55.082;38.772;2023-05-10T15:06:34;100479.38;;;19.30;18.89
71948;BME280;63257;55.082;38.772;2023-05-10T15:09:02;100508.41;;;19.46;19.16
71948;BME280;63257;55.082;38.772;2023-05-10T15:11:29;100492.09;;;19.06;19.72
71948;BME280;63257;55.082;38.772;2023-05-10T15:13:55;100497.53;;;18.81;19.72
71948;BME280;63257;55.082;38.772;2023-05-10T15:16:21;100499.19;;;18.48;20.36
71948;BME280;63257;55.082;38.772;2023-05-10T15:18:47;100496.72;;;18.23;20.40
71948;BME280;63257;55.082;38.772;2023-05-10T15:21:13;100500.94;;;17.90;21.01
71948;BME280;63257;55.082;38.772;2023-05-10T15:23:39;100495.25;;;17.59;21.33
71948;BME280;63257;55.082;38.772;2023-05-10T15:26:05;100476.50;;;17.23;21.33
71948;BME280;63257;55.082;38.772;2023-05-10T15:28:31;100484.66;;;17.33;21.80
71948;BME280;63257;55.082;38.772;2023-05-10T15:30:57;100501.44;;;16.98;22.06
71948;BME280;63257;55.082;38.772;2023-05-10T15:33:23;100470.31;;;16.60;22.15
71948;BME280;63257;55.082;38.772;2023-05-10T15:35:50;100506.84;;;16.96;22.37
71948;BME280;63257;55.082;38.772;2023-05-10T15:38:16;100506.63;;;16.87;22.61
71948;BME280;63257;55.082;38.772;2023-05-10T15:40:41;100499.28;;;16.65;22.12
71948;BME280;63257;55.082;38.772;2023-05-10T15:43:07;100485.75;;;16.55;22.15
71948;BME280;63257;55.082;38.772;2023-05-10T15:45:33;100496.06;;;16.59;22.74
71948;BME280;63257;55.082;38.772;2023-05-10T15:47:59;100484.25;;;16.25;23.12
71948;BME280;63257;55.082;38.772;2023-05-10T15:50:25;100496.81;;;16.23;23.30
71948;BME280;63257;55.082;38.772;2023-05-10T15:52:51;100505.31;;;16.15;23.82
71948;BME280;63257;55.082;38.772;2023-05-10T15:55:17;100475.03;;;15.90;23.90
71948;BME280;63257;55.082;38.772;2023-05-10T15:57:44;100465.88;;;15.94;24.60